La Coste, Texas
Current Conditions -  °F | °C
As of 11:15 AM on Saturday 20 Dec 2014 (Local Time) from KCVB Reporting Station
Overcast Overcast  
Wind Chill: 51°   Ceiling: 1600
Heat Index: 51°   Visibility: 7mi
Dew Point: 42°   Wind: 8mph
Humidity: 71%   Direction: 60°ENE
Pressure: 30.24"   Gusts: 17mph
Location:  29.31°N, 98.81°W
Report Text: KCVB 201715Z AUTO 06007G15KT 7SM OVC016 11/06 A3024 RMK AO2 T01080057
Loading
Personal Weather Stations






























Interactive Weather Map New forecast layout! Learn more

10-Day Weather Forecast

Advertisements
Track Severe Weather on mobile